sensor_id;sensor_type;location;lat;lon;timestamp;P1;durP1;ratioP1;P2;durP2;ratioP2
12433;SDS011;6281;49.038;8.372;2023-05-29T00:01:55;5.50;;;3.77;;
12433;SDS011;6281;49.038;8.372;2023-05-29T00:04:22;7.33;;;4.20;;
12433;SDS011;6281;49.038;8.372;2023-05-29T00:06:49;5.73;;;3.70;;
12433;SDS011;6281;49.038;8.372;2023-05-29T00:09:16;6.83;;;4.07;;
12433;SDS011;6281;49.038;8.372;2023-05-29T00:11:43;5.37;;;3.80;;
12433;SDS011;6281;49.038;8.372;2023-05-29T00:14:15;4.87;;;3.20;;
12433;SDS011;6281;49.038;8.372;2023-05-29T00:16:44;6.03;;;3.40;;
12433;SDS011;6281;49.038;8.372;2023-05-29T00:19:13;5.50;;;3.40;;
12433;SDS011;6281;49.038;8.372;2023-05-29T00:21:41;5.70;;;3.40;;
12433;SDS011;6281;49.038;8.372;2023-05-29T00:24:09;4.80;;;3.23;;
12433;SDS011;6281;49.038;8.372;2023-05-29T00:26:35;5.37;;;3.00;;
12433;SDS011;6281;49.038;8.372;2023-05-29T00:29:02;6.77;;;3.37;;
12433;SDS011;6281;49.038;8.372;2023-05-29T00:31:30;4.83;;;3.23;;
12433;SDS011;6281;49.038;8.372;2023-05-29T00:33:57;4.60;;;3.37;;
12433;SDS011;6281;49.038;8.372;2023-05-29T00:36:25;5.30;;;3.23;;
12433;SDS011;6281;49.038;8.372;2023-05-29T00:38:53;4.13;;;2.80;;
12433;SDS011;6281;49.038;8.372;2023-05-29T00:41:20;4.50;;;3.37;;
12433;SDS011;6281;49.038;8.372;2023-05-29T00:43:47;4.27;;;3.40;;
12433;SDS011;6281;49.038;8.372;2023-05-29T00:46:14;7.50;;;4.43;;
12433;SDS011;6281;49.038;8.372;2023-05-29T00:48:42;6.70;;;4.27;;
12433;SDS011;6281;49.038;8.372;2023-05-29T00:51:09;6.70;;;4.37;;
12433;SDS011;6281;49.038;8.372;2023-05-29T00:53:39;7.77;;;4.87;;
12433;SDS011;6281;49.038;8.372;2023-05-29T00:56:08;7.67;;;4.47;;
12433;SDS011;6281;49.038;8.372;2023-05-29T00:58:36;10.07;;;4.90;;
12433;SDS011;6281;49.038;8.372;2023-05-29T01:01:03;7.00;;;3.97;;
12433;SDS011;6281;49.038;8.372;2023-05-29T01:03:30;5.77;;;3.63;;
12433;SDS011;6281;49.038;8.372;2023-05-29T01:05:58;4.43;;;3.53;;
12433;SDS011;6281;49.038;8.372;2023-05-29T01:08:25;7.30;;;4.10;;
12433;SDS011;6281;49.038;8.372;2023-05-29T01:10:54;6.47;;;4.03;;
12433;SDS011;6281;49.038;8.372;2023-05-29T01:13:27;4.20;;;3.20;;
12433;SDS011;6281;49.038;8.372;2023-05-29T01:15:59;5.53;;;3.30;;
12433;SDS011;6281;49.038;8.372;2023-05-29T01:18:34;4.73;;;3.07;;
12433;SDS011;6281;49.038;8.372;2023-05-29T01:21:06;5.13;;;3.13;;
12433;SDS011;6281;49.038;8.372;2023-05-29T01:23:51;4.80;;;3.00;;
12433;SDS011;6281;49.038;8.372;2023-05-29T01:29:24;4.47;;;2.67;;
12433;SDS011;6281;49.038;8.372;2023-05-29T01:31:56;3.53;;;2.50;;
12433;SDS011;6281;49.038;8.372;2023-05-29T01:34:24;3.03;;;2.30;;
12433;SDS011;6281;49.038;8.372;2023-05-29T01:36:51;5.30;;;2.83;;
12433;SDS011;6281;49.038;8.372;2023-05-29T01:39:18;4.43;;;2.83;;
12433;SDS011;6281;49.038;8.372;2023-05-29T01:41:46;4.47;;;2.87;;
12433;SDS011;6281;49.038;8.372;2023-05-29T01:44:15;5.53;;;2.77;;
12433;SDS011;6281;49.038;8.372;2023-05-29T01:46:43;4.60;;;3.00;;
12433;SDS011;6281;49.038;8.372;2023-05-29T01:49:11;4.87;;;2.63;;
12433;SDS011;6281;49.038;8.372;2023-05-29T01:51:39;5.17;;;2.83;;
12433;SDS011;6281;49.038;8.372;2023-05-29T01:54:07;5.17;;;2.80;;
12433;SDS011;6281;49.038;8.372;2023-05-29T01:56:34;4.97;;;2.73;;
12433;SDS011;6281;49.038;8.372;2023-05-29T01:59:02;3.63;;;2.60;;
12433;SDS011;6281;49.038;8.372;2023-05-29T02:01:32;4.30;;;2.80;;
12433;SDS011;6281;49.038;8.372;2023-05-29T02:03:59;5.17;;;2.73;;
12433;SDS011;6281;49.038;8.372;2023-05-29T02:06:26;5.83;;;3.73;;
12433;SDS011;6281;49.038;8.372;2023-05-29T02:08:52;4.50;;;2.90;;
12433;SDS011;6281;49.038;8.372;2023-05-29T02:11:19;3.70;;;2.63;;
12433;SDS011;6281;49.038;8.372;2023-05-29T02:13:46;7.90;;;3.37;;
12433;SDS011;6281;49.038;8.372;2023-05-29T02:16:14;6.90;;;3.87;;
12433;SDS011;6281;49.038;8.372;2023-05-29T02:18:43;8.00;;;4.10;;
12433;SDS011;6281;49.038;8.372;2023-05-29T02:21:10;5.63;;;3.33;;
12433;SDS011;6281;49.038;8.372;2023-05-29T02:23:37;6.47;;;3.30;;
12433;SDS011;6281;49.038;8.372;2023-05-29T02:26:04;6.13;;;3.27;;
12433;SDS011;6281;49.038;8.372;2023-05-29T02:28:31;5.10;;;3.03;;
12433;SDS011;6281;49.038;8.372;2023-05-29T02:30:58;4.97;;;3.13;;
12433;SDS011;6281;49.038;8.372;2023-05-29T02:33:25;4.87;;;3.23;;
12433;SDS011;6281;49.038;8.372;2023-05-29T02:35:53;6.03;;;3.33;;
12433;SDS011;6281;49.038;8.372;2023-05-29T02:38:20;4.90;;;3.17;;
12433;SDS011;6281;49.038;8.372;2023-05-29T02:40:48;3.67;;;2.63;;
12433;SDS011;6281;49.038;8.372;2023-05-29T02:43:15;4.50;;;3.33;;
12433;SDS011;6281;49.038;8.372;2023-05-29T02:45:42;5.73;;;3.40;;
12433;SDS011;6281;49.038;8.372;2023-05-29T02:48:09;4.80;;;3.63;;
12433;SDS011;6281;49.038;8.372;2023-05-29T02:50:35;5.33;;;2.80;;
12433;SDS011;6281;49.038;8.372;2023-05-29T02:53:04;4.70;;;3.13;;
12433;SDS011;6281;49.038;8.372;2023-05-29T02:55:31;3.83;;;3.10;;
12433;SDS011;6281;49.038;8.372;2023-05-29T02:58:00;4.67;;;3.07;;
12433;SDS011;6281;49.038;8.372;2023-05-29T03:00:28;6.03;;;3.03;;
12433;SDS011;6281;49.038;8.372;2023-05-29T03:02:55;4.37;;;2.90;;
12433;SDS011;6281;49.038;8.372;2023-05-29T03:05:22;6.73;;;3.23;;
12433;SDS011;6281;49.038;8.372;2023-05-29T03:07:49;4.57;;;3.40;;
12433;SDS011;6281;49.038;8.372;2023-05-29T03:10:17;4.97;;;3.13;;
12433;SDS011;6281;49.038;8.372;2023-05-29T03:12:44;5.37;;;2.40;;
12433;SDS011;6281;49.038;8.372;2023-05-29T03:15:12;5.60;;;2.93;;
12433;SDS011;6281;49.038;8.372;2023-05-29T03:17:39;5.57;;;3.10;;
12433;SDS011;6281;49.038;8.372;2023-05-29T03:20:06;5.97;;;2.90;;
12433;SDS011;6281;49.038;8.372;2023-05-29T03:22:35;4.03;;;3.00;;
12433;SDS011;6281;49.038;8.372;2023-05-29T03:25:02;3.67;;;2.83;;
12433;SDS011;6281;49.038;8.372;2023-05-29T03:27:32;3.80;;;2.47;;
12433;SDS011;6281;49.038;8.372;2023-05-29T03:29:59;4.37;;;3.13;;
12433;SDS011;6281;49.038;8.372;2023-05-29T03:32:26;6.43;;;2.97;;
12433;SDS011;6281;49.038;8.372;2023-05-29T03:34:52;4.17;;;2.60;;
12433;SDS011;6281;49.038;8.372;2023-05-29T03:37:21;4.33;;;2.90;;
12433;SDS011;6281;49.038;8.372;2023-05-29T03:39:48;5.40;;;3.07;;
12433;SDS011;6281;49.038;8.372;2023-05-29T03:42:15;4.63;;;3.00;;
12433;SDS011;6281;49.038;8.372;2023-05-29T03:44:43;7.33;;;3.80;;
12433;SDS011;6281;49.038;8.372;2023-05-29T03:47:10;6.17;;;3.80;;
12433;SDS011;6281;49.038;8.372;2023-05-29T03:49:37;7.13;;;4.33;;
12433;SDS011;6281;49.038;8.372;2023-05-29T03:52:04;11.53;;;4.10;;
12433;SDS011;6281;49.038;8.372;2023-05-29T03:54:32;6.47;;;3.63;;
12433;SDS011;6281;49.038;8.372;2023-05-29T03:56:59;4.43;;;3.60;;
12433;SDS011;6281;49.038;8.372;2023-05-29T03:59:26;5.53;;;3.33;;
12433;SDS011;6281;49.038;8.372;2023-05-29T04:01:54;4.07;;;2.90;;
12433;SDS011;6281;49.038;8.372;2023-05-29T04:04:21;6.30;;;2.83;;
12433;SDS011;6281;49.038;8.372;2023-05-29T04:06:48;4.20;;;2.97;;
12433;SDS011;6281;49.038;8.372;2023-05-29T04:09:15;3.70;;;2.80;;
12433;SDS011;6281;49.038;8.372;2023-05-29T04:11:42;4.53;;;2.97;;
12433;SDS011;6281;49.038;8.372;2023-05-29T04:14:09;6.80;;;3.37;;
12433;SDS011;6281;49.038;8.372;2023-05-29T04:16:36;6.83;;;2.70;;
12433;SDS011;6281;49.038;8.372;2023-05-29T04:19:04;5.67;;;2.63;;
12433;SDS011;6281;49.038;8.372;2023-05-29T04:21:31;4.53;;;2.80;;
12433;SDS011;6281;49.038;8.372;2023-05-29T04:23:59;4.90;;;3.00;;
12433;SDS011;6281;49.038;8.372;2023-05-29T04:26:26;4.90;;;2.77;;
12433;SDS011;6281;49.038;8.372;2023-05-29T04:28:53;5.83;;;3.10;;
12433;SDS011;6281;49.038;8.372;2023-05-29T04:31:23;3.93;;;2.33;;
12433;SDS011;6281;49.038;8.372;2023-05-29T04:33:51;4.57;;;2.77;;
12433;SDS011;6281;49.038;8.372;2023-05-29T04:36:22;4.50;;;2.93;;
12433;SDS011;6281;49.038;8.372;2023-05-29T04:38:51;2.83;;;2.30;;
12433;SDS011;6281;49.038;8.372;2023-05-29T04:41:18;4.67;;;2.80;;
12433;SDS011;6281;49.038;8.372;2023-05-29T04:43:48;4.80;;;2.77;;
12433;SDS011;6281;49.038;8.372;2023-05-29T04:46:16;5.23;;;2.90;;
12433;SDS011;6281;49.038;8.372;2023-05-29T04:48:43;3.83;;;2.60;;
12433;SDS011;6281;49.038;8.372;2023-05-29T04:51:10;3.10;;;2.50;;
12433;SDS011;6281;49.038;8.372;2023-05-29T04:53:38;4.27;;;2.73;;
12433;SDS011;6281;49.038;8.372;2023-05-29T04:56:06;3.50;;;2.50;;
12433;SDS011;6281;49.038;8.372;2023-05-29T04:58:33;3.07;;;2.13;;
12433;SDS011;6281;49.038;8.372;2023-05-29T05:01:00;4.70;;;2.70;;
12433;SDS011;6281;49.038;8.372;2023-05-29T05:03:28;3.63;;;2.60;;
12433;SDS011;6281;49.038;8.372;2023-05-29T05:05:55;5.03;;;2.03;;
12433;SDS011;6281;49.038;8.372;2023-05-29T05:08:23;4.70;;;2.60;;
12433;SDS011;6281;49.038;8.372;2023-05-29T05:10:51;4.17;;;2.20;;
12433;SDS011;6281;49.038;8.372;2023-05-29T05:13:18;3.03;;;2.33;;
12433;SDS011;6281;49.038;8.372;2023-05-29T05:15:45;4.47;;;2.10;;
12433;SDS011;6281;49.038;8.372;2023-05-29T05:18:12;2.67;;;2.10;;
12433;SDS011;6281;49.038;8.372;2023-05-29T05:20:39;3.67;;;2.33;;
12433;SDS011;6281;49.038;8.372;2023-05-29T05:23:06;6.00;;;2.93;;
12433;SDS011;6281;49.038;8.372;2023-05-29T05:25:33;4.60;;;2.30;;
12433;SDS011;6281;49.038;8.372;2023-05-29T05:28:01;3.03;;;2.03;;
12433;SDS011;6281;49.038;8.372;2023-05-29T05:30:29;4.03;;;1.87;;
12433;SDS011;6281;49.038;8.372;2023-05-29T05:32:56;5.07;;;2.57;;
12433;SDS011;6281;49.038;8.372;2023-05-29T05:35:23;3.57;;;2.40;;
12433;SDS011;6281;49.038;8.372;2023-05-29T05:37:50;3.90;;;2.47;;
12433;SDS011;6281;49.038;8.372;2023-05-29T05:40:17;4.63;;;2.30;;
12433;SDS011;6281;49.038;8.372;2023-05-29T05:42:44;4.73;;;2.53;;
12433;SDS011;6281;49.038;8.372;2023-05-29T05:45:13;4.33;;;2.57;;
12433;SDS011;6281;49.038;8.372;2023-05-29T05:47:40;6.03;;;2.80;;
12433;SDS011;6281;49.038;8.372;2023-05-29T05:50:07;4.43;;;2.70;;
12433;SDS011;6281;49.038;8.372;2023-05-29T05:52:34;4.10;;;2.67;;
12433;SDS011;6281;49.038;8.372;2023-05-29T05:55:01;4.27;;;2.40;;
12433;SDS011;6281;49.038;8.372;2023-05-29T05:57:28;5.80;;;2.70;;
12433;SDS011;6281;49.038;8.372;2023-05-29T05:59:57;3.80;;;2.10;;
12433;SDS011;6281;49.038;8.372;2023-05-29T06:02:26;4.87;;;2.67;;
12433;SDS011;6281;49.038;8.372;2023-05-29T06:04:53;3.53;;;2.07;;
12433;SDS011;6281;49.038;8.372;2023-05-29T06:07:20;3.53;;;2.50;;
12433;SDS011;6281;49.038;8.372;2023-05-29T06:09:48;3.77;;;2.40;;
12433;SDS011;6281;49.038;8.372;2023-05-29T06:12:15;4.50;;;2.47;;
12433;SDS011;6281;49.038;8.372;2023-05-29T06:14:42;4.30;;;2.53;;
12433;SDS011;6281;49.038;8.372;2023-05-29T06:17:09;5.13;;;2.30;;
12433;SDS011;6281;49.038;8.372;2023-05-29T06:19:37;5.10;;;2.37;;
12433;SDS011;6281;49.038;8.372;2023-05-29T06:22:05;5.50;;;2.50;;
12433;SDS011;6281;49.038;8.372;2023-05-29T06:24:32;3.80;;;2.40;;
12433;SDS011;6281;49.038;8.372;2023-05-29T06:26:58;4.33;;;2.20;;
12433;SDS011;6281;49.038;8.372;2023-05-29T06:29:26;3.53;;;2.37;;
12433;SDS011;6281;49.038;8.372;2023-05-29T06:31:53;4.30;;;2.40;;
12433;SDS011;6281;49.038;8.372;2023-05-29T06:34:20;5.13;;;2.53;;
12433;SDS011;6281;49.038;8.372;2023-05-29T06:36:49;3.40;;;2.13;;
12433;SDS011;6281;49.038;8.372;2023-05-29T06:39:16;4.03;;;2.47;;
12433;SDS011;6281;49.038;8.372;2023-05-29T06:41:45;4.60;;;2.80;;
12433;SDS011;6281;49.038;8.372;2023-05-29T06:44:12;3.67;;;2.33;;
12433;SDS011;6281;49.038;8.372;2023-05-29T06:46:38;3.00;;;2.30;;
12433;SDS011;6281;49.038;8.372;2023-05-29T06:49:05;4.27;;;2.30;;
12433;SDS011;6281;49.038;8.372;2023-05-29T06:51:33;3.93;;;2.23;;
12433;SDS011;6281;49.038;8.372;2023-05-29T06:54:01;4.83;;;2.20;;
12433;SDS011;6281;49.038;8.372;2023-05-29T06:56:29;4.30;;;2.00;;
12433;SDS011;6281;49.038;8.372;2023-05-29T06:58:56;2.93;;;2.13;;
12433;SDS011;6281;49.038;8.372;2023-05-29T07:01:23;2.60;;;2.00;;
12433;SDS011;6281;49.038;8.372;2023-05-29T07:03:51;2.77;;;1.90;;
12433;SDS011;6281;49.038;8.372;2023-05-29T07:06:18;2.90;;;1.87;;
12433;SDS011;6281;49.038;8.372;2023-05-29T07:08:45;2.97;;;2.27;;
12433;SDS011;6281;49.038;8.372;2023-05-29T07:11:14;3.53;;;2.00;;
12433;SDS011;6281;49.038;8.372;2023-05-29T07:13:41;3.37;;;2.13;;
12433;SDS011;6281;49.038;8.372;2023-05-29T07:16:07;3.03;;;2.17;;
12433;SDS011;6281;49.038;8.372;2023-05-29T07:18:34;4.97;;;2.00;;
12433;SDS011;6281;49.038;8.372;2023-05-29T07:21:01;4.10;;;2.10;;
12433;SDS011;6281;49.038;8.372;2023-05-29T07:23:28;4.73;;;2.00;;
12433;SDS011;6281;49.038;8.372;2023-05-29T07:25:55;2.10;;;1.87;;
12433;SDS011;6281;49.038;8.372;2023-05-29T07:28:23;3.30;;;2.20;;
12433;SDS011;6281;49.038;8.372;2023-05-29T07:30:50;3.77;;;2.30;;
12433;SDS011;6281;49.038;8.372;2023-05-29T07:33:17;3.07;;;2.13;;
12433;SDS011;6281;49.038;8.372;2023-05-29T07:35:44;2.70;;;1.97;;
12433;SDS011;6281;49.038;8.372;2023-05-29T07:38:11;4.57;;;2.07;;
12433;SDS011;6281;49.038;8.372;2023-05-29T07:40:38;3.73;;;1.90;;
12433;SDS011;6281;49.038;8.372;2023-05-29T07:43:05;3.90;;;1.80;;
12433;SDS011;6281;49.038;8.372;2023-05-29T07:45:33;4.73;;;2.07;;
12433;SDS011;6281;49.038;8.372;2023-05-29T07:48:00;2.80;;;2.20;;
12433;SDS011;6281;49.038;8.372;2023-05-29T07:50:27;4.07;;;2.17;;
12433;SDS011;6281;49.038;8.372;2023-05-29T07:52:54;5.50;;;2.10;;
12433;SDS011;6281;49.038;8.372;2023-05-29T07:55:22;3.47;;;2.30;;
12433;SDS011;6281;49.038;8.372;2023-05-29T07:57:49;5.50;;;2.83;;
12433;SDS011;6281;49.038;8.372;2023-05-29T08:00:16;3.03;;;2.00;;
12433;SDS011;6281;49.038;8.372;2023-05-29T08:02:44;4.53;;;2.20;;
12433;SDS011;6281;49.038;8.372;2023-05-29T08:05:11;4.13;;;2.20;;
12433;SDS011;6281;49.038;8.372;2023-05-29T08:07:38;3.30;;;2.10;;
12433;SDS011;6281;49.038;8.372;2023-05-29T08:10:06;4.53;;;2.50;;
12433;SDS011;6281;49.038;8.372;2023-05-29T08:12:34;2.23;;;2.00;;
12433;SDS011;6281;49.038;8.372;2023-05-29T08:15:01;3.70;;;2.23;;
12433;SDS011;6281;49.038;8.372;2023-05-29T08:17:28;3.10;;;2.27;;
12433;SDS011;6281;49.038;8.372;2023-05-29T08:19:56;2.63;;;1.90;;
12433;SDS011;6281;49.038;8.372;2023-05-29T08:22:27;3.47;;;2.13;;
12433;SDS011;6281;49.038;8.372;2023-05-29T08:24:55;4.73;;;2.27;;
12433;SDS011;6281;49.038;8.372;2023-05-29T08:27:22;4.03;;;2.10;;
12433;SDS011;6281;49.038;8.372;2023-05-29T08:29:49;3.97;;;2.20;;
12433;SDS011;6281;49.038;8.372;2023-05-29T08:32:16;2.83;;;2.20;;
12433;SDS011;6281;49.038;8.372;2023-05-29T08:34:43;3.67;;;2.23;;
12433;SDS011;6281;49.038;8.372;2023-05-29T08:37:12;3.60;;;2.33;;
12433;SDS011;6281;49.038;8.372;2023-05-29T08:39:39;3.63;;;1.97;;
12433;SDS011;6281;49.038;8.372;2023-05-29T08:42:07;5.23;;;2.20;;
12433;SDS011;6281;49.038;8.372;2023-05-29T08:44:39;3.63;;;2.33;;
12433;SDS011;6281;49.038;8.372;2023-05-29T08:47:07;3.33;;;2.03;;
12433;SDS011;6281;49.038;8.372;2023-05-29T08:49:37;3.90;;;2.40;;
12433;SDS011;6281;49.038;8.372;2023-05-29T08:52:09;3.23;;;2.30;;
12433;SDS011;6281;49.038;8.372;2023-05-29T08:54:41;4.17;;;2.40;;
12433;SDS011;6281;49.038;8.372;2023-05-29T08:57:10;4.37;;;2.10;;
12433;SDS011;6281;49.038;8.372;2023-05-29T08:59:39;2.57;;;1.90;;
12433;SDS011;6281;49.038;8.372;2023-05-29T09:02:09;3.63;;;2.00;;
12433;SDS011;6281;49.038;8.372;2023-05-29T09:04:36;3.23;;;2.53;;
12433;SDS011;6281;49.038;8.372;2023-05-29T09:07:04;4.47;;;2.40;;
12433;SDS011;6281;49.038;8.372;2023-05-29T09:09:33;3.83;;;2.50;;
12433;SDS011;6281;49.038;8.372;2023-05-29T09:12:02;3.23;;;2.40;;
12433;SDS011;6281;49.038;8.372;2023-05-29T09:14:33;3.87;;;2.60;;
12433;SDS011;6281;49.038;8.372;2023-05-29T09:17:01;3.67;;;2.40;;
12433;SDS011;6281;49.038;8.372;2023-05-29T09:19:28;3.87;;;2.23;;
12433;SDS011;6281;49.038;8.372;2023-05-29T09:22:02;4.00;;;2.33;;
12433;SDS011;6281;49.038;8.372;2023-05-29T09:24:30;8.07;;;2.97;;
12433;SDS011;6281;49.038;8.372;2023-05-29T09:26:59;6.00;;;2.70;;
12433;SDS011;6281;49.038;8.372;2023-05-29T09:29:28;5.10;;;2.80;;
12433;SDS011;6281;49.038;8.372;2023-05-29T09:31:57;3.97;;;2.37;;
12433;SDS011;6281;49.038;8.372;2023-05-29T09:34:25;4.47;;;2.60;;
12433;SDS011;6281;49.038;8.372;2023-05-29T09:36:52;6.17;;;2.83;;
12433;SDS011;6281;49.038;8.372;2023-05-29T09:39:21;3.00;;;2.30;;
12433;SDS011;6281;49.038;8.372;2023-05-29T09:41:48;3.10;;;2.10;;
12433;SDS011;6281;49.038;8.372;2023-05-29T09:44:16;3.57;;;2.43;;
12433;SDS011;6281;49.038;8.372;2023-05-29T09:46:44;3.83;;;1.87;;
12433;SDS011;6281;49.038;8.372;2023-05-29T09:49:14;4.37;;;2.43;;
12433;SDS011;6281;49.038;8.372;2023-05-29T09:51:41;3.30;;;2.20;;
12433;SDS011;6281;49.038;8.372;2023-05-29T09:54:13;3.33;;;2.30;;
12433;SDS011;6281;49.038;8.372;2023-05-29T09:56:42;3.70;;;2.42;;
12433;SDS011;6281;49.038;8.372;2023-05-29T09:59:10;3.78;;;2.33;;
12433;SDS011;6281;49.038;8.372;2023-05-29T10:01:39;5.55;;;2.50;;
12433;SDS011;6281;49.038;8.372;2023-05-29T10:04:10;2.67;;;2.10;;
12433;SDS011;6281;49.038;8.372;2023-05-29T10:06:41;3.42;;;2.25;;
12433;SDS011;6281;49.038;8.372;2023-05-29T10:09:12;3.63;;;2.45;;
12433;SDS011;6281;49.038;8.372;2023-05-29T10:11:41;3.42;;;2.35;;
12433;SDS011;6281;49.038;8.372;2023-05-29T10:14:10;4.97;;;2.72;;
12433;SDS011;6281;49.038;8.372;2023-05-29T10:16:41;3.60;;;2.20;;
12433;SDS011;6281;49.038;8.372;2023-05-29T10:19:19;3.45;;;2.40;;
12433;SDS011;6281;49.038;8.372;2023-05-29T10:21:51;3.47;;;2.50;;
12433;SDS011;6281;49.038;8.372;2023-05-29T10:24:21;5.10;;;3.20;;
12433;SDS011;6281;49.038;8.372;2023-05-29T10:26:49;3.28;;;1.90;;
12433;SDS011;6281;49.038;8.372;2023-05-29T10:29:17;3.38;;;2.45;;
12433;SDS011;6281;49.038;8.372;2023-05-29T10:31:52;3.25;;;2.63;;
12433;SDS011;6281;49.038;8.372;2023-05-29T10:34:33;2.45;;;2.20;;
12433;SDS011;6281;49.038;8.372;2023-05-29T10:37:07;2.63;;;2.13;;
12433;SDS011;6281;49.038;8.372;2023-05-29T10:39:42;2.90;;;2.40;;
12433;SDS011;6281;49.038;8.372;2023-05-29T10:45:10;4.80;;;2.70;;
12433;SDS011;6281;49.038;8.372;2023-05-29T10:47:38;3.22;;;2.40;;
12433;SDS011;6281;49.038;8.372;2023-05-29T10:50:06;4.90;;;2.22;;
12433;SDS011;6281;49.038;8.372;2023-05-29T10:52:33;4.32;;;2.45;;
12433;SDS011;6281;49.038;8.372;2023-05-29T10:55:01;3.38;;;2.40;;
12433;SDS011;6281;49.038;8.372;2023-05-29T10:57:30;3.20;;;2.30;;
12433;SDS011;6281;49.038;8.372;2023-05-29T11:00:04;4.15;;;2.42;;
12433;SDS011;6281;49.038;8.372;2023-05-29T11:02:38;3.03;;;2.30;;
12433;SDS011;6281;49.038;8.372;2023-05-29T11:05:21;3.10;;;2.40;;
12433;SDS011;6281;49.038;8.372;2023-05-29T11:07:53;3.58;;;2.53;;
12433;SDS011;6281;49.038;8.372;2023-05-29T11:13:07;2.53;;;2.33;;
12433;SDS011;6281;49.038;8.372;2023-05-29T11:15:35;3.70;;;2.65;;
12433;SDS011;6281;49.038;8.372;2023-05-29T11:18:05;3.15;;;2.20;;
12433;SDS011;6281;49.038;8.372;2023-05-29T11:20:38;4.28;;;2.20;;
12433;SDS011;6281;49.038;8.372;2023-05-29T11:23:14;3.47;;;2.63;;
12433;SDS011;6281;49.038;8.372;2023-05-29T11:25:43;2.58;;;1.95;;
12433;SDS011;6281;49.038;8.372;2023-05-29T11:28:12;2.50;;;2.10;;
12433;SDS011;6281;49.038;8.372;2023-05-29T11:30:42;4.32;;;2.67;;
12433;SDS011;6281;49.038;8.372;2023-05-29T11:33:12;3.50;;;2.50;;
12433;SDS011;6281;49.038;8.372;2023-05-29T11:35:48;6.47;;;3.85;;
12433;SDS011;6281;49.038;8.372;2023-05-29T11:38:20;3.28;;;2.15;;
12433;SDS011;6281;49.038;8.372;2023-05-29T11:40:46;2.60;;;2.17;;
12433;SDS011;6281;49.038;8.372;2023-05-29T11:43:13;3.13;;;2.20;;
12433;SDS011;6281;49.038;8.372;2023-05-29T11:45:40;3.88;;;2.40;;
12433;SDS011;6281;49.038;8.372;2023-05-29T11:48:07;2.75;;;1.80;;
12433;SDS011;6281;49.038;8.372;2023-05-29T11:50:35;3.72;;;2.13;;
12433;SDS011;6281;49.038;8.372;2023-05-29T11:53:05;4.88;;;2.30;;
12433;SDS011;6281;49.038;8.372;2023-05-29T11:55:33;3.45;;;2.22;;
12433;SDS011;6281;49.038;8.372;2023-05-29T11:58:00;5.95;;;2.20;;
12433;SDS011;6281;49.038;8.372;2023-05-29T12:00:30;2.65;;;2.05;;
12433;SDS011;6281;49.038;8.372;2023-05-29T12:02:58;3.60;;;2.28;;
12433;SDS011;6281;49.038;8.372;2023-05-29T12:05:28;4.45;;;2.28;;
12433;SDS011;6281;49.038;8.372;2023-05-29T12:07:56;3.25;;;2.35;;
12433;SDS011;6281;49.038;8.372;2023-05-29T12:10:27;3.63;;;2.20;;
12433;SDS011;6281;49.038;8.372;2023-05-29T12:12:54;3.60;;;2.15;;
12433;SDS011;6281;49.038;8.372;2023-05-29T12:15:22;3.15;;;2.60;;
12433;SDS011;6281;49.038;8.372;2023-05-29T12:17:49;3.03;;;1.88;;
12433;SDS011;6281;49.038;8.372;2023-05-29T12:20:18;3.53;;;2.10;;
12433;SDS011;6281;49.038;8.372;2023-05-29T12:22:47;3.15;;;2.30;;
12433;SDS011;6281;49.038;8.372;2023-05-29T12:25:15;2.95;;;2.33;;
12433;SDS011;6281;49.038;8.372;2023-05-29T12:27:44;3.00;;;2.10;;
12433;SDS011;6281;49.038;8.372;2023-05-29T12:30:12;2.63;;;2.28;;
12433;SDS011;6281;49.038;8.372;2023-05-29T12:32:41;3.35;;;2.15;;
12433;SDS011;6281;49.038;8.372;2023-05-29T12:35:16;2.85;;;2.35;;
12433;SDS011;6281;49.038;8.372;2023-05-29T12:37:44;3.70;;;1.98;;
12433;SDS011;6281;49.038;8.372;2023-05-29T12:40:14;2.75;;;2.20;;
12433;SDS011;6281;49.038;8.372;2023-05-29T12:42:44;2.22;;;1.98;;
12433;SDS011;6281;49.038;8.372;2023-05-29T12:45:11;3.33;;;2.22;;
12433;SDS011;6281;49.038;8.372;2023-05-29T12:47:43;2.97;;;1.90;;
12433;SDS011;6281;49.038;8.372;2023-05-29T12:50:21;4.93;;;2.38;;
12433;SDS011;6281;49.038;8.372;2023-05-29T12:52:59;2.28;;;1.92;;
12433;SDS011;6281;49.038;8.372;2023-05-29T12:55:27;3.08;;;2.22;;
12433;SDS011;6281;49.038;8.372;2023-05-29T12:57:57;4.85;;;2.30;;
12433;SDS011;6281;49.038;8.372;2023-05-29T13:00:24;4.28;;;2.30;;
12433;SDS011;6281;49.038;8.372;2023-05-29T13:02:51;2.47;;;2.10;;
12433;SDS011;6281;49.038;8.372;2023-05-29T13:05:18;2.78;;;2.15;;
12433;SDS011;6281;49.038;8.372;2023-05-29T13:07:47;3.83;;;2.13;;
12433;SDS011;6281;49.038;8.372;2023-05-29T13:10:15;3.70;;;1.90;;
12433;SDS011;6281;49.038;8.372;2023-05-29T13:12:42;4.20;;;2.10;;
12433;SDS011;6281;49.038;8.372;2023-05-29T13:15:13;2.45;;;1.63;;
12433;SDS011;6281;49.038;8.372;2023-05-29T13:17:40;4.22;;;2.47;;
12433;SDS011;6281;49.038;8.372;2023-05-29T13:20:09;3.90;;;1.90;;
12433;SDS011;6281;49.038;8.372;2023-05-29T13:22:37;2.17;;;1.98;;
12433;SDS011;6281;49.038;8.372;2023-05-29T13:25:04;2.33;;;2.00;;
12433;SDS011;6281;49.038;8.372;2023-05-29T13:27:34;2.28;;;1.90;;
12433;SDS011;6281;49.038;8.372;2023-05-29T13:30:02;4.47;;;2.08;;
12433;SDS011;6281;49.038;8.372;2023-05-29T13:32:31;2.00;;;1.80;;
12433;SDS011;6281;49.038;8.372;2023-05-29T13:34:59;2.75;;;2.10;;
12433;SDS011;6281;49.038;8.372;2023-05-29T13:37:26;2.15;;;1.80;;
12433;SDS011;6281;49.038;8.372;2023-05-29T13:39:53;2.78;;;2.10;;
12433;SDS011;6281;49.038;8.372;2023-05-29T13:42:20;3.88;;;1.90;;
12433;SDS011;6281;49.038;8.372;2023-05-29T13:44:48;1.90;;;1.70;;
12433;SDS011;6281;49.038;8.372;2023-05-29T13:47:15;2.20;;;2.00;;
12433;SDS011;6281;49.038;8.372;2023-05-29T13:49:44;2.25;;;1.88;;
12433;SDS011;6281;49.038;8.372;2023-05-29T13:52:11;2.20;;;1.98;;
12433;SDS011;6281;49.038;8.372;2023-05-29T13:54:38;2.72;;;1.80;;
12433;SDS011;6281;49.038;8.372;2023-05-29T13:57:05;2.05;;;1.80;;
12433;SDS011;6281;49.038;8.372;2023-05-29T13:59:33;2.38;;;1.80;;
12433;SDS011;6281;49.038;8.372;2023-05-29T14:02:00;3.10;;;2.45;;
12433;SDS011;6281;49.038;8.372;2023-05-29T14:04:28;2.25;;;1.80;;
12433;SDS011;6281;49.038;8.372;2023-05-29T14:06:57;2.75;;;1.88;;
12433;SDS011;6281;49.038;8.372;2023-05-29T14:09:24;2.70;;;1.65;;
12433;SDS011;6281;49.038;8.372;2023-05-29T14:11:53;2.58;;;1.77;;
12433;SDS011;6281;49.038;8.372;2023-05-29T14:14:21;2.28;;;1.70;;
12433;SDS011;6281;49.038;8.372;2023-05-29T14:16:48;2.00;;;1.80;;
12433;SDS011;6281;49.038;8.372;2023-05-29T14:19:16;2.95;;;1.90;;
12433;SDS011;6281;49.038;8.372;2023-05-29T14:21:43;3.90;;;2.33;;
12433;SDS011;6281;49.038;8.372;2023-05-29T14:24:12;3.17;;;2.17;;
12433;SDS011;6281;49.038;8.372;2023-05-29T14:26:40;2.97;;;2.08;;
12433;SDS011;6281;49.038;8.372;2023-05-29T14:29:10;2.60;;;2.20;;
12433;SDS011;6281;49.038;8.372;2023-05-29T14:31:38;2.85;;;2.33;;
12433;SDS011;6281;49.038;8.372;2023-05-29T14:34:05;2.13;;;1.63;;
12433;SDS011;6281;49.038;8.372;2023-05-29T14:36:32;2.63;;;1.80;;
12433;SDS011;6281;49.038;8.372;2023-05-29T14:39:00;2.50;;;2.30;;
12433;SDS011;6281;49.038;8.372;2023-05-29T14:41:28;2.58;;;2.10;;
12433;SDS011;6281;49.038;8.372;2023-05-29T14:43:55;2.85;;;1.98;;
12433;SDS011;6281;49.038;8.372;2023-05-29T14:46:24;2.28;;;1.95;;
12433;SDS011;6281;49.038;8.372;2023-05-29T14:48:51;2.38;;;1.90;;
12433;SDS011;6281;49.038;8.372;2023-05-29T14:51:19;2.45;;;1.83;;
12433;SDS011;6281;49.038;8.372;2023-05-29T14:53:46;3.08;;;1.90;;
12433;SDS011;6281;49.038;8.372;2023-05-29T14:56:13;2.75;;;1.98;;
12433;SDS011;6281;49.038;8.372;2023-05-29T14:58:41;2.50;;;2.17;;
12433;SDS011;6281;49.038;8.372;2023-05-29T15:01:08;2.20;;;1.65;;
12433;SDS011;6281;49.038;8.372;2023-05-29T15:03:35;2.83;;;1.92;;
12433;SDS011;6281;49.038;8.372;2023-05-29T15:06:02;6.22;;;1.85;;
12433;SDS011;6281;49.038;8.372;2023-05-29T15:08:29;2.72;;;1.60;;
12433;SDS011;6281;49.038;8.372;2023-05-29T15:10:59;2.50;;;1.85;;
12433;SDS011;6281;49.038;8.372;2023-05-29T15:13:27;2.65;;;2.00;;
12433;SDS011;6281;49.038;8.372;2023-05-29T15:15:56;1.88;;;1.67;;